sensor_id;sensor_type;location;lat;lon;timestamp;temperature;humidity
30288;DHT22;17103;48.316;11.558;2024-03-22T00:01:47;12.50;50.00
30288;DHT22;17103;48.316;11.558;2024-03-22T00:04:14;12.40;49.90
30288;DHT22;17103;48.316;11.558;2024-03-22T00:06:41;12.40;50.00
30288;DHT22;17103;48.316;11.558;2024-03-22T00:09:07;12.40;50.20
30288;DHT22;17103;48.316;11.558;2024-03-22T00:11:33;12.30;49.80
30288;DHT22;17103;48.316;11.558;2024-03-22T00:13:59;12.30;50.00
30288;DHT22;17103;48.316;11.558;2024-03-22T00:16:24;12.30;50.20
30288;DHT22;17103;48.316;11.558;2024-03-22T00:18:50;12.80;50.60
30288;DHT22;17103;48.316;11.558;2024-03-22T00:21:15;12.50;50.40
30288;DHT22;17103;48.316;11.558;2024-03-22T00:23:42;12.30;50.30
30288;DHT22;17103;48.316;11.558;2024-03-22T00:26:08;12.20;50.20
30288;DHT22;17103;48.316;11.558;2024-03-22T00:28:33;12.30;50.30
30288;DHT22;17103;48.316;11.558;2024-03-22T00:30:59;12.30;50.50
30288;DHT22;17103;48.316;11.558;2024-03-22T00:33:25;12.20;50.50
30288;DHT22;17103;48.316;11.558;2024-03-22T00:35:50;12.20;50.40
30288;DHT22;17103;48.316;11.558;2024-03-22T00:38:16;12.20;50.40
30288;DHT22;17103;48.316;11.558;2024-03-22T00:40:42;13.00;51.20
30288;DHT22;17103;48.316;11.558;2024-03-22T00:43:08;12.10;50.60
30288;DHT22;17103;48.316;11.558;2024-03-22T00:45:33;12.10;50.70
30288;DHT22;17103;48.316;11.558;2024-03-22T00:47:59;12.00;50.60
30288;DHT22;17103;48.316;11.558;2024-03-22T00:50:24;12.00;50.70
30288;DHT22;17103;48.316;11.558;2024-03-22T00:52:51;12.00;51.10
30288;DHT22;17103;48.316;11.558;2024-03-22T00:55:18;12.00;51.00
30288;DHT22;17103;48.316;11.558;2024-03-22T00:57:44;11.90;51.20
30288;DHT22;17103;48.316;11.558;2024-03-22T01:00:10;11.90;51.20
30288;DHT22;17103;48.316;11.558;2024-03-22T01:02:35;11.90;51.50
30288;DHT22;17103;48.316;11.558;2024-03-22T01:05:01;11.80;51.40
30288;DHT22;17103;48.316;11.558;2024-03-22T01:07:27;11.80;51.40
30288;DHT22;17103;48.316;11.558;2024-03-22T01:09:52;11.70;51.20
30288;DHT22;17103;48.316;11.558;2024-03-22T01:12:18;11.90;51.60
30288;DHT22;17103;48.316;11.558;2024-03-22T01:14:43;11.70;51.60
30288;DHT22;17103;48.316;11.558;2024-03-22T01:17:09;11.70;51.70
30288;DHT22;17103;48.316;11.558;2024-03-22T01:19:38;11.60;51.50
30288;DHT22;17103;48.316;11.558;2024-03-22T01:22:03;11.60;51.80
30288;DHT22;17103;48.316;11.558;2024-03-22T01:24:29;11.60;52.50
30288;DHT22;17103;48.316;11.558;2024-03-22T01:26:55;11.50;51.70
30288;DHT22;17103;48.316;11.558;2024-03-22T01:29:21;11.50;51.60
30288;DHT22;17103;48.316;11.558;2024-03-22T01:31:47;11.50;52.00
30288;DHT22;17103;48.316;11.558;2024-03-22T01:34:13;12.60;52.80
30288;DHT22;17103;48.316;11.558;2024-03-22T01:36:39;11.50;52.10
30288;DHT22;17103;48.316;11.558;2024-03-22T01:39:04;11.40;51.80
30288;DHT22;17103;48.316;11.558;2024-03-22T01:41:30;11.50;52.00
30288;DHT22;17103;48.316;11.558;2024-03-22T01:43:57;11.40;51.80
30288;DHT22;17103;48.316;11.558;2024-03-22T01:46:22;11.40;51.90
30288;DHT22;17103;48.316;11.558;2024-03-22T01:48:48;12.80;53.20
30288;DHT22;17103;48.316;11.558;2024-03-22T01:51:14;11.60;52.20
30288;DHT22;17103;48.316;11.558;2024-03-22T01:53:40;11.40;52.20
30288;DHT22;17103;48.316;11.558;2024-03-22T01:56:07;11.30;52.30
30288;DHT22;17103;48.316;11.558;2024-03-22T01:58:33;11.30;52.30
30288;DHT22;17103;48.316;11.558;2024-03-22T02:00:59;11.30;52.40
30288;DHT22;17103;48.316;11.558;2024-03-22T02:03:24;11.90;53.20
30288;DHT22;17103;48.316;11.558;2024-03-22T02:05:50;11.30;52.70
30288;DHT22;17103;48.316;11.558;2024-03-22T02:08:16;11.80;53.10
30288;DHT22;17103;48.316;11.558;2024-03-22T02:10:43;11.20;52.50
30288;DHT22;17103;48.316;11.558;2024-03-22T02:13:09;11.20;52.60
30288;DHT22;17103;48.316;11.558;2024-03-22T02:15:34;12.20;53.20
30288;DHT22;17103;48.316;11.558;2024-03-22T02:18:00;11.60;52.90
30288;DHT22;17103;48.316;11.558;2024-03-22T02:20:25;11.90;53.10
30288;DHT22;17103;48.316;11.558;2024-03-22T02:22:51;11.40;52.80
30288;DHT22;17103;48.316;11.558;2024-03-22T02:25:17;11.10;52.80
30288;DHT22;17103;48.316;11.558;2024-03-22T02:27:43;11.10;52.70
30288;DHT22;17103;48.316;11.558;2024-03-22T02:30:09;11.10;52.50
30288;DHT22;17103;48.316;11.558;2024-03-22T02:32:34;11.10;52.60
30288;DHT22;17103;48.316;11.558;2024-03-22T02:35:00;11.10;52.80
30288;DHT22;17103;48.316;11.558;2024-03-22T02:37:26;11.10;52.80
30288;DHT22;17103;48.316;11.558;2024-03-22T02:39:53;11.00;52.70
30288;DHT22;17103;48.316;11.558;2024-03-22T02:42:19;11.00;52.80
30288;DHT22;17103;48.316;11.558;2024-03-22T02:44:45;11.00;52.70
30288;DHT22;17103;48.316;11.558;2024-03-22T02:47:10;11.10;52.70
30288;DHT22;17103;48.316;11.558;2024-03-22T02:49:38;11.00;52.60
30288;DHT22;17103;48.316;11.558;2024-03-22T02:52:04;10.90;52.80
30288;DHT22;17103;48.316;11.558;2024-03-22T02:54:30;10.90;52.90
30288;DHT22;17103;48.316;11.558;2024-03-22T02:56:55;10.90;52.90
30288;DHT22;17103;48.316;11.558;2024-03-22T02:59:28;10.90;52.90
30288;DHT22;17103;48.316;11.558;2024-03-22T03:01:54;10.90;53.10
30288;DHT22;17103;48.316;11.558;2024-03-22T03:04:20;10.90;52.90
30288;DHT22;17103;48.316;11.558;2024-03-22T03:06:46;10.80;52.80
30288;DHT22;17103;48.316;11.558;2024-03-22T03:09:12;10.90;52.70
30288;DHT22;17103;48.316;11.558;2024-03-22T03:11:41;10.90;52.90
30288;DHT22;17103;48.316;11.558;2024-03-22T03:14:06;12.00;54.10
30288;DHT22;17103;48.316;11.558;2024-03-22T03:16:32;10.90;53.10
30288;DHT22;17103;48.316;11.558;2024-03-22T03:18:58;11.50;53.60
30288;DHT22;17103;48.316;11.558;2024-03-22T03:21:24;10.90;52.80
30288;DHT22;17103;48.316;11.558;2024-03-22T03:23:49;10.80;53.20
30288;DHT22;17103;48.316;11.558;2024-03-22T03:26:15;10.80;52.70
30288;DHT22;17103;48.316;11.558;2024-03-22T03:28:40;10.80;52.60
30288;DHT22;17103;48.316;11.558;2024-03-22T03:31:06;10.90;52.80
30288;DHT22;17103;48.316;11.558;2024-03-22T03:33:33;10.90;52.70
30288;DHT22;17103;48.316;11.558;2024-03-22T03:35:59;11.30;53.10
30288;DHT22;17103;48.316;11.558;2024-03-22T03:38:25;10.80;52.60
30288;DHT22;17103;48.316;11.558;2024-03-22T03:40:50;10.80;52.70
30288;DHT22;17103;48.316;11.558;2024-03-22T03:43:16;10.80;52.70
30288;DHT22;17103;48.316;11.558;2024-03-22T03:45:42;10.80;52.70
30288;DHT22;17103;48.316;11.558;2024-03-22T03:48:08;10.80;52.70
30288;DHT22;17103;48.316;11.558;2024-03-22T03:50:33;10.80;52.60
30288;DHT22;17103;48.316;11.558;2024-03-22T03:52:59;10.80;52.60
30288;DHT22;17103;48.316;11.558;2024-03-22T03:55:25;10.80;52.60
30288;DHT22;17103;48.316;11.558;2024-03-22T03:57:50;10.80;52.40
30288;DHT22;17103;48.316;11.558;2024-03-22T04:00:18;10.80;52.40
30288;DHT22;17103;48.316;11.558;2024-03-22T04:02:43;10.90;52.50
30288;DHT22;17103;48.316;11.558;2024-03-22T04:05:09;10.90;52.40
30288;DHT22;17103;48.316;11.558;2024-03-22T04:07:35;10.90;52.30
30288;DHT22;17103;48.316;11.558;2024-03-22T04:10:00;11.20;52.40
30288;DHT22;17103;48.316;11.558;2024-03-22T04:12:26;10.90;52.20
30288;DHT22;17103;48.316;11.558;2024-03-22T04:14:55;10.90;52.10
30288;DHT22;17103;48.316;11.558;2024-03-22T04:17:21;11.00;52.30
30288;DHT22;17103;48.316;11.558;2024-03-22T04:19:49;11.00;52.40
30288;DHT22;17103;48.316;11.558;2024-03-22T04:22:15;10.90;52.90
30288;DHT22;17103;48.316;11.558;2024-03-22T04:24:41;11.00;52.30
30288;DHT22;17103;48.316;11.558;2024-03-22T04:27:07;11.00;52.10
30288;DHT22;17103;48.316;11.558;2024-03-22T04:29:33;10.90;52.20
30288;DHT22;17103;48.316;11.558;2024-03-22T04:31:59;11.00;52.20
30288;DHT22;17103;48.316;11.558;2024-03-22T04:34:24;11.00;52.20
30288;DHT22;17103;48.316;11.558;2024-03-22T04:36:50;11.00;52.10
30288;DHT22;17103;48.316;11.558;2024-03-22T04:39:19;11.00;52.00
30288;DHT22;17103;48.316;11.558;2024-03-22T04:41:44;12.50;53.20
30288;DHT22;17103;48.316;11.558;2024-03-22T04:44:10;11.00;52.10
30288;DHT22;17103;48.316;11.558;2024-03-22T04:46:37;11.80;52.60
30288;DHT22;17103;48.316;11.558;2024-03-22T04:49:02;10.90;51.90
30288;DHT22;17103;48.316;11.558;2024-03-22T04:51:28;10.90;51.90
30288;DHT22;17103;48.316;11.558;2024-03-22T04:53:54;10.90;52.20
30288;DHT22;17103;48.316;11.558;2024-03-22T04:56:19;10.90;52.10
30288;DHT22;17103;48.316;11.558;2024-03-22T04:58:45;10.90;51.90
30288;DHT22;17103;48.316;11.558;2024-03-22T05:01:11;11.00;51.70
30288;DHT22;17103;48.316;11.558;2024-03-22T05:03:38;11.20;51.90
30288;DHT22;17103;48.316;11.558;2024-03-22T05:06:04;10.90;51.60
30288;DHT22;17103;48.316;11.558;2024-03-22T05:08:32;10.80;51.40
30288;DHT22;17103;48.316;11.558;2024-03-22T05:10:57;10.80;51.40
30288;DHT22;17103;48.316;11.558;2024-03-22T05:13:23;10.80;51.40
30288;DHT22;17103;48.316;11.558;2024-03-22T05:15:49;10.70;51.30
30288;DHT22;17103;48.316;11.558;2024-03-22T05:18:15;10.70;51.40
30288;DHT22;17103;48.316;11.558;2024-03-22T05:20:41;10.60;51.60
30288;DHT22;17103;48.316;11.558;2024-03-22T05:23:07;11.00;52.20
30288;DHT22;17103;48.316;11.558;2024-03-22T05:25:32;10.60;51.90
30288;DHT22;17103;48.316;11.558;2024-03-22T05:27:58;10.90;52.30
30288;DHT22;17103;48.316;11.558;2024-03-22T05:30:24;10.60;52.20
30288;DHT22;17103;48.316;11.558;2024-03-22T05:32:49;10.50;52.20
30288;DHT22;17103;48.316;11.558;2024-03-22T05:35:16;10.50;52.20
30288;DHT22;17103;48.316;11.558;2024-03-22T05:37:41;10.60;52.40
30288;DHT22;17103;48.316;11.558;2024-03-22T05:40:07;10.60;52.40
30288;DHT22;17103;48.316;11.558;2024-03-22T05:42:34;10.60;52.40
30288;DHT22;17103;48.316;11.558;2024-03-22T05:45:01;10.60;52.30
30288;DHT22;17103;48.316;11.558;2024-03-22T05:47:26;10.60;52.20
30288;DHT22;17103;48.316;11.558;2024-03-22T05:49:52;10.60;52.10
30288;DHT22;17103;48.316;11.558;2024-03-22T05:52:18;10.60;52.10
30288;DHT22;17103;48.316;11.558;2024-03-22T05:54:43;10.60;52.00
30288;DHT22;17103;48.316;11.558;2024-03-22T05:57:09;11.20;52.40
30288;DHT22;17103;48.316;11.558;2024-03-22T05:59:36;10.60;51.80
30288;DHT22;17103;48.316;11.558;2024-03-22T06:02:02;10.60;51.70
30288;DHT22;17103;48.316;11.558;2024-03-22T06:04:27;10.60;51.50
30288;DHT22;17103;48.316;11.558;2024-03-22T06:06:53;10.50;51.70
30288;DHT22;17103;48.316;11.558;2024-03-22T06:09:19;10.60;52.00
30288;DHT22;17103;48.316;11.558;2024-03-22T06:12:00;10.60;52.10
30288;DHT22;17103;48.316;11.558;2024-03-22T06:14:28;10.60;52.30
30288;DHT22;17103;48.316;11.558;2024-03-22T06:16:54;10.70;52.60
30288;DHT22;17103;48.316;11.558;2024-03-22T06:19:20;10.70;52.30
30288;DHT22;17103;48.316;11.558;2024-03-22T06:21:46;10.70;52.00
30288;DHT22;17103;48.316;11.558;2024-03-22T06:24:11;10.80;52.00
30288;DHT22;17103;48.316;11.558;2024-03-22T06:26:38;11.10;52.00
30288;DHT22;17103;48.316;11.558;2024-03-22T06:29:04;11.90;52.60
30288;DHT22;17103;48.316;11.558;2024-03-22T06:31:30;10.80;51.80
30288;DHT22;17103;48.316;11.558;2024-03-22T06:33:55;10.90;52.00
30288;DHT22;17103;48.316;11.558;2024-03-22T06:36:28;10.90;52.00
30288;DHT22;17103;48.316;11.558;2024-03-22T06:38:54;10.90;52.00
30288;DHT22;17103;48.316;11.558;2024-03-22T06:41:19;10.90;52.10
30288;DHT22;17103;48.316;11.558;2024-03-22T06:43:45;11.00;52.20
30288;DHT22;17103;48.316;11.558;2024-03-22T06:46:11;11.00;52.20
30288;DHT22;17103;48.316;11.558;2024-03-22T06:48:38;11.10;52.00
30288;DHT22;17103;48.316;11.558;2024-03-22T06:51:03;11.10;52.00
30288;DHT22;17103;48.316;11.558;2024-03-22T06:53:29;11.10;51.80
30288;DHT22;17103;48.316;11.558;2024-03-22T06:55:55;11.10;51.90
30288;DHT22;17103;48.316;11.558;2024-03-22T06:58:20;11.90;52.60
30288;DHT22;17103;48.316;11.558;2024-03-22T07:00:46;11.10;51.90
30288;DHT22;17103;48.316;11.558;2024-03-22T07:03:12;11.10;52.00
30288;DHT22;17103;48.316;11.558;2024-03-22T07:05:37;11.10;52.20
30288;DHT22;17103;48.316;11.558;2024-03-22T07:08:03;11.10;52.20
30288;DHT22;17103;48.316;11.558;2024-03-22T07:10:29;11.00;52.30
30288;DHT22;17103;48.316;11.558;2024-03-22T07:12:57;11.00;52.50
30288;DHT22;17103;48.316;11.558;2024-03-22T07:15:23;11.00;52.50
30288;DHT22;17103;48.316;11.558;2024-03-22T07:17:49;11.10;53.00
30288;DHT22;17103;48.316;11.558;2024-03-22T07:20:16;11.10;53.00
30288;DHT22;17103;48.316;11.558;2024-03-22T07:22:41;12.60;54.20
30288;DHT22;17103;48.316;11.558;2024-03-22T07:25:11;11.20;53.20
30288;DHT22;17103;48.316;11.558;2024-03-22T07:27:38;11.40;53.70
30288;DHT22;17103;48.316;11.558;2024-03-22T07:30:04;12.30;54.30
30288;DHT22;17103;48.316;11.558;2024-03-22T07:32:30;11.30;53.50
30288;DHT22;17103;48.316;11.558;2024-03-22T07:34:57;11.40;53.60
30288;DHT22;17103;48.316;11.558;2024-03-22T07:37:23;11.40;53.60
30288;DHT22;17103;48.316;11.558;2024-03-22T07:39:48;12.00;54.40
30288;DHT22;17103;48.316;11.558;2024-03-22T07:42:14;12.30;54.70
30288;DHT22;17103;48.316;11.558;2024-03-22T07:44:40;11.50;53.80
30288;DHT22;17103;48.316;11.558;2024-03-22T07:47:06;11.60;54.30
30288;DHT22;17103;48.316;11.558;2024-03-22T07:49:31;11.60;54.60
30288;DHT22;17103;48.316;11.558;2024-03-22T07:51:59;11.70;54.10
30288;DHT22;17103;48.316;11.558;2024-03-22T07:54:25;11.90;54.00
30288;DHT22;17103;48.316;11.558;2024-03-22T07:56:50;11.70;53.90
30288;DHT22;17103;48.316;11.558;2024-03-22T07:59:16;11.80;54.00
30288;DHT22;17103;48.316;11.558;2024-03-22T08:01:42;12.20;54.50
30288;DHT22;17103;48.316;11.558;2024-03-22T08:04:08;11.90;54.10
30288;DHT22;17103;48.316;11.558;2024-03-22T08:06:33;12.00;54.20
30288;DHT22;17103;48.316;11.558;2024-03-22T08:08:59;12.10;54.50
30288;DHT22;17103;48.316;11.558;2024-03-22T08:11:26;12.20;54.80
30288;DHT22;17103;48.316;11.558;2024-03-22T08:13:52;12.50;55.00
30288;DHT22;17103;48.316;11.558;2024-03-22T08:16:18;12.90;55.40
30288;DHT22;17103;48.316;11.558;2024-03-22T08:18:45;12.50;54.70
30288;DHT22;17103;48.316;11.558;2024-03-22T08:21:10;13.60;55.30
30288;DHT22;17103;48.316;11.558;2024-03-22T08:23:36;12.70;54.30
30288;DHT22;17103;48.316;11.558;2024-03-22T08:26:02;13.70;55.00
30288;DHT22;17103;48.316;11.558;2024-03-22T08:28:27;12.90;54.00
30288;DHT22;17103;48.316;11.558;2024-03-22T08:30:55;13.00;54.10
30288;DHT22;17103;48.316;11.558;2024-03-22T08:33:21;13.20;54.00
30288;DHT22;17103;48.316;11.558;2024-03-22T08:35:46;13.20;53.80
30288;DHT22;17103;48.316;11.558;2024-03-22T08:38:13;13.30;53.90
30288;DHT22;17103;48.316;11.558;2024-03-22T08:40:40;14.10;54.20
30288;DHT22;17103;48.316;11.558;2024-03-22T08:43:06;13.60;53.40
30288;DHT22;17103;48.316;11.558;2024-03-22T08:45:34;13.60;53.60
30288;DHT22;17103;48.316;11.558;2024-03-22T08:48:01;13.70;53.70
30288;DHT22;17103;48.316;11.558;2024-03-22T08:50:26;13.80;53.50
30288;DHT22;17103;48.316;11.558;2024-03-22T08:52:52;13.90;53.50
30288;DHT22;17103;48.316;11.558;2024-03-22T08:55:18;14.10;53.30
30288;DHT22;17103;48.316;11.558;2024-03-22T08:57:44;14.10;53.00
30288;DHT22;17103;48.316;11.558;2024-03-22T09:00:10;14.20;52.80
30288;DHT22;17103;48.316;11.558;2024-03-22T09:02:36;14.30;52.70
30288;DHT22;17103;48.316;11.558;2024-03-22T09:05:03;14.30;52.30
30288;DHT22;17103;48.316;11.558;2024-03-22T09:07:30;14.40;52.30
30288;DHT22;17103;48.316;11.558;2024-03-22T09:09:56;14.50;52.40
30288;DHT22;17103;48.316;11.558;2024-03-22T09:12:22;14.50;52.50
30288;DHT22;17103;48.316;11.558;2024-03-22T09:14:47;14.60;52.30
30288;DHT22;17103;48.316;11.558;2024-03-22T09:17:13;14.60;52.10
30288;DHT22;17103;48.316;11.558;2024-03-22T09:19:39;14.70;52.40
30288;DHT22;17103;48.316;11.558;2024-03-22T09:22:05;14.80;52.90
30288;DHT22;17103;48.316;11.558;2024-03-22T09:24:31;14.80;52.20
30288;DHT22;17103;48.316;11.558;2024-03-22T09:26:56;14.90;51.20
30288;DHT22;17103;48.316;11.558;2024-03-22T09:29:22;15.00;50.40
30288;DHT22;17103;48.316;11.558;2024-03-22T09:31:48;15.00;50.30
30288;DHT22;17103;48.316;11.558;2024-03-22T09:34:16;15.10;50.50
30288;DHT22;17103;48.316;11.558;2024-03-22T09:36:42;16.20;51.50
30288;DHT22;17103;48.316;11.558;2024-03-22T09:39:07;15.30;50.80
30288;DHT22;17103;48.316;11.558;2024-03-22T09:41:42;15.50;51.10
30288;DHT22;17103;48.316;11.558;2024-03-22T09:44:12;15.50;50.50
30288;DHT22;17103;48.316;11.558;2024-03-22T09:46:39;15.60;50.50
30288;DHT22;17103;48.316;11.558;2024-03-22T09:49:06;15.70;50.20
30288;DHT22;17103;48.316;11.558;2024-03-22T09:51:33;15.80;50.00
30288;DHT22;17103;48.316;11.558;2024-03-22T09:54:00;15.90;49.80
30288;DHT22;17103;48.316;11.558;2024-03-22T09:56:30;16.00;49.60
30288;DHT22;17103;48.316;11.558;2024-03-22T09:59:00;16.10;49.70
30288;DHT22;17103;48.316;11.558;2024-03-22T10:01:26;16.20;49.60
30288;DHT22;17103;48.316;11.558;2024-03-22T10:03:52;16.60;48.50
30288;DHT22;17103;48.316;11.558;2024-03-22T10:06:18;16.30;47.50
30288;DHT22;17103;48.316;11.558;2024-03-22T10:08:44;16.30;47.60
30288;DHT22;17103;48.316;11.558;2024-03-22T10:11:10;16.40;47.50
30288;DHT22;17103;48.316;11.558;2024-03-22T10:13:36;16.40;47.70
30288;DHT22;17103;48.316;11.558;2024-03-22T10:16:02;16.40;47.10
30288;DHT22;17103;48.316;11.558;2024-03-22T10:18:28;16.50;47.00
30288;DHT22;17103;48.316;11.558;2024-03-22T10:21:20;16.70;46.70
30288;DHT22;17103;48.316;11.558;2024-03-22T10:23:46;16.60;46.40
30288;DHT22;17103;48.316;11.558;2024-03-22T10:26:14;16.80;45.90
30288;DHT22;17103;48.316;11.558;2024-03-22T10:28:46;16.70;46.30
30288;DHT22;17103;48.316;11.558;2024-03-22T10:31:13;16.80;46.50
30288;DHT22;17103;48.316;11.558;2024-03-22T10:33:40;16.90;46.80
30288;DHT22;17103;48.316;11.558;2024-03-22T10:36:07;17.80;46.80
30288;DHT22;17103;48.316;11.558;2024-03-22T10:38:35;17.00;45.80
30288;DHT22;17103;48.316;11.558;2024-03-22T10:41:01;17.10;45.00
30288;DHT22;17103;48.316;11.558;2024-03-22T10:43:28;17.30;45.70
30288;DHT22;17103;48.316;11.558;2024-03-22T10:45:57;18.20;46.50
30288;DHT22;17103;48.316;11.558;2024-03-22T10:48:28;17.40;45.90
30288;DHT22;17103;48.316;11.558;2024-03-22T10:50:55;17.30;45.00
30288;DHT22;17103;48.316;11.558;2024-03-22T10:53:25;17.30;45.60
30288;DHT22;17103;48.316;11.558;2024-03-22T10:55:53;18.70;47.30
30288;DHT22;17103;48.316;11.558;2024-03-22T10:58:24;17.40;45.30
30288;DHT22;17103;48.316;11.558;2024-03-22T11:00:55;17.50;44.00
30288;DHT22;17103;48.316;11.558;2024-03-22T11:03:23;17.60;44.60
30288;DHT22;17103;48.316;11.558;2024-03-22T11:05:53;17.60;44.60
30288;DHT22;17103;48.316;11.558;2024-03-22T11:08:27;17.70;44.80
30288;DHT22;17103;48.316;11.558;2024-03-22T11:10:57;17.80;44.70
30288;DHT22;17103;48.316;11.558;2024-03-22T11:13:24;18.70;45.40
30288;DHT22;17103;48.316;11.558;2024-03-22T11:15:50;18.90;45.50
30288;DHT22;17103;48.316;11.558;2024-03-22T11:18:17;17.40;43.50
30288;DHT22;17103;48.316;11.558;2024-03-22T11:21:07;18.20;43.70
30288;DHT22;17103;48.316;11.558;2024-03-22T11:23:37;18.30;42.20
30288;DHT22;17103;48.316;11.558;2024-03-22T11:26:03;18.30;42.90
30288;DHT22;17103;48.316;11.558;2024-03-22T11:28:30;18.40;41.80
30288;DHT22;17103;48.316;11.558;2024-03-22T11:30:56;18.50;42.60
30288;DHT22;17103;48.316;11.558;2024-03-22T11:33:21;18.50;43.00
30288;DHT22;17103;48.316;11.558;2024-03-22T11:35:52;19.70;43.50
30288;DHT22;17103;48.316;11.558;2024-03-22T11:38:18;18.60;41.80
30288;DHT22;17103;48.316;11.558;2024-03-22T11:40:44;18.70;42.10
30288;DHT22;17103;48.316;11.558;2024-03-22T11:43:11;18.70;42.00
30288;DHT22;17103;48.316;11.558;2024-03-22T11:45:39;18.80;42.20
30288;DHT22;17103;48.316;11.558;2024-03-22T11:48:06;18.80;41.50
30288;DHT22;17103;48.316;11.558;2024-03-22T11:50:33;18.80;41.60
30288;DHT22;17103;48.316;11.558;2024-03-22T11:53:01;19.40;42.30
30288;DHT22;17103;48.316;11.558;2024-03-22T11:55:31;18.90;42.00
30288;DHT22;17103;48.316;11.558;2024-03-22T11:57:58;18.90;42.00
30288;DHT22;17103;48.316;11.558;2024-03-22T12:00:24;18.90;42.10
30288;DHT22;17103;48.316;11.558;2024-03-22T12:02:52;19.10;42.00
30288;DHT22;17103;48.316;11.558;2024-03-22T12:05:18;18.90;41.70
30288;DHT22;17103;48.316;11.558;2024-03-22T12:07:44;19.00;42.10
30288;DHT22;17103;48.316;11.558;2024-03-22T12:10:10;19.90;43.10
30288;DHT22;17103;48.316;11.558;2024-03-22T12:12:36;19.00;42.60
30288;DHT22;17103;48.316;11.558;2024-03-22T12:15:03;19.00;42.30
30288;DHT22;17103;48.316;11.558;2024-03-22T12:17:29;19.00;41.90
30288;DHT22;17103;48.316;11.558;2024-03-22T12:19:55;19.10;42.70
30288;DHT22;17103;48.316;11.558;2024-03-22T12:22:28;19.10;42.30
30288;DHT22;17103;48.316;11.558;2024-03-22T12:24:57;19.10;42.50
30288;DHT22;17103;48.316;11.558;2024-03-22T12:27:24;19.10;42.50
30288;DHT22;17103;48.316;11.558;2024-03-22T12:29:50;19.30;43.00
30288;DHT22;17103;48.316;11.558;2024-03-22T12:32:16;19.30;42.40
30288;DHT22;17103;48.316;11.558;2024-03-22T12:34:42;19.40;42.40
30288;DHT22;17103;48.316;11.558;2024-03-22T12:37:07;19.50;42.20
30288;DHT22;17103;48.316;11.558;2024-03-22T12:39:33;20.00;42.20
30288;DHT22;17103;48.316;11.558;2024-03-22T12:42:00;19.60;41.40
30288;DHT22;17103;48.316;11.558;2024-03-22T12:44:26;20.70;42.00
30288;DHT22;17103;48.316;11.558;2024-03-22T12:46:51;20.40;41.80
30288;DHT22;17103;48.316;11.558;2024-03-22T12:49:17;19.60;40.20
30288;DHT22;17103;48.316;11.558;2024-03-22T12:51:43;19.60;40.50
30288;DHT22;17103;48.316;11.558;2024-03-22T12:54:09;19.60;40.80
30288;DHT22;17103;48.316;11.558;2024-03-22T12:56:35;20.90;41.20
30288;DHT22;17103;48.316;11.558;2024-03-22T12:59:02;19.70;40.50
30288;DHT22;17103;48.316;11.558;2024-03-22T13:01:28;20.00;41.00
30288;DHT22;17103;48.316;11.558;2024-03-22T13:03:54;20.10;41.80
30288;DHT22;17103;48.316;11.558;2024-03-22T13:06:20;19.70;40.80
30288;DHT22;17103;48.316;11.558;2024-03-22T13:08:46;19.70;40.70
30288;DHT22;17103;48.316;11.558;2024-03-22T13:11:12;19.70;41.40
30288;DHT22;17103;48.316;11.558;2024-03-22T13:13:38;19.70;42.20
30288;DHT22;17103;48.316;11.558;2024-03-22T13:16:04;19.80;41.90
30288;DHT22;17103;48.316;11.558;2024-03-22T13:18:30;19.80;41.60
30288;DHT22;17103;48.316;11.558;2024-03-22T13:20:56;19.90;40.40
30288;DHT22;17103;48.316;11.558;2024-03-22T13:23:21;19.90;40.80
30288;DHT22;17103;48.316;11.558;2024-03-22T13:25:48;20.30;40.70
30288;DHT22;17103;48.316;11.558;2024-03-22T13:28:13;20.90;41.70
30288;DHT22;17103;48.316;11.558;2024-03-22T13:30:39;20.20;41.40
30288;DHT22;17103;48.316;11.558;2024-03-22T13:33:05;20.60;40.30
30288;DHT22;17103;48.316;11.558;2024-03-22T13:35:33;20.40;40.30
30288;DHT22;17103;48.316;11.558;2024-03-22T13:37:59;20.30;39.50
30288;DHT22;17103;48.316;11.558;2024-03-22T13:40:26;20.40;39.80
30288;DHT22;17103;48.316;11.558;2024-03-22T13:42:55;20.60;40.10
30288;DHT22;17103;48.316;11.558;2024-03-22T13:45:21;20.50;39.90
30288;DHT22;17103;48.316;11.558;2024-03-22T13:47:56;20.50;40.60
30288;DHT22;17103;48.316;11.558;2024-03-22T13:50:22;21.80;40.70
30288;DHT22;17103;48.316;11.558;2024-03-22T13:52:48;21.80;41.50
30288;DHT22;17103;48.316;11.558;2024-03-22T13:55:14;20.80;39.80
30288;DHT22;17103;48.316;11.558;2024-03-22T13:57:40;20.80;40.10
30288;DHT22;17103;48.316;11.558;2024-03-22T14:00:06;20.90;40.10
30288;DHT22;17103;48.316;11.558;2024-03-22T14:02:32;21.00;39.00
30288;DHT22;17103;48.316;11.558;2024-03-22T14:04:58;22.20;39.30
30288;DHT22;17103;48.316;11.558;2024-03-22T14:07:26;21.20;38.20
30288;DHT22;17103;48.316;11.558;2024-03-22T14:09:52;21.20;37.80
30288;DHT22;17103;48.316;11.558;2024-03-22T14:12:18;21.30;38.90
30288;DHT22;17103;48.316;11.558;2024-03-22T14:14:44;21.40;39.60
30288;DHT22;17103;48.316;11.558;2024-03-22T14:17:12;21.50;38.90
30288;DHT22;17103;48.316;11.558;2024-03-22T14:19:37;22.70;39.70
30288;DHT22;17103;48.316;11.558;2024-03-22T14:22:03;21.50;38.80
30288;DHT22;17103;48.316;11.558;2024-03-22T14:24:29;21.50;38.70
30288;DHT22;17103;48.316;11.558;2024-03-22T14:26:55;21.60;38.20
30288;DHT22;17103;48.316;11.558;2024-03-22T14:29:20;21.90;38.50
30288;DHT22;17103;48.316;11.558;2024-03-22T14:31:46;21.60;38.40
30288;DHT22;17103;48.316;11.558;2024-03-22T14:34:12;21.70;38.30
30288;DHT22;17103;48.316;11.558;2024-03-22T14:36:37;21.70;38.00
30288;DHT22;17103;48.316;11.558;2024-03-22T14:39:03;21.80;38.50
30288;DHT22;17103;48.316;11.558;2024-03-22T14:41:31;21.80;38.50
30288;DHT22;17103;48.316;11.558;2024-03-22T14:43:57;21.90;39.10
30288;DHT22;17103;48.316;11.558;2024-03-22T14:46:23;22.00;39.20
30288;DHT22;17103;48.316;11.558;2024-03-22T14:48:50;22.00;39.20
30288;DHT22;17103;48.316;11.558;2024-03-22T14:51:19;22.80;39.90
30288;DHT22;17103;48.316;11.558;2024-03-22T14:53:47;22.10;38.30
30288;DHT22;17103;48.316;11.558;2024-03-22T14:56:13;22.10;38.30
30288;DHT22;17103;48.316;11.558;2024-03-22T14:58:40;22.10;38.40
30288;DHT22;17103;48.316;11.558;2024-03-22T15:01:06;22.20;38.80
30288;DHT22;17103;48.316;11.558;2024-03-22T15:03:32;23.00;39.40
30288;DHT22;17103;48.316;11.558;2024-03-22T15:06:19;22.20;38.80
30288;DHT22;17103;48.316;11.558;2024-03-22T15:08:53;22.20;37.70
30288;DHT22;17103;48.316;11.558;2024-03-22T15:11:22;22.30;37.90